Terminal Aerodrome Forecast
Issued by NWS

Home | Current Version | Previous Version | Text Only | Print | Product List | Glossary On
Versions: 1 2 3 4 5 6 7 8 9 10 11 12 13 14 15 16 17 18 19 20 21 22 23 24 25 26 27
000
FTUS43 KSGF 250300 AAC
TAFJLN
TAF AMD
KJLN 250351Z 2504/2524 28011KT 3SM -RA BR SCT005 BKN015 OVC030
     FM250430 VRB06KT 5SM -SHRA BR FEW005 SCT015 OVC025
     FM250600 17006KT 6SM BR SCT010
      TEMPO 2508/2512 2SM BR SCT004
     FM251200 16006KT 4SM BR SCT004
      TEMPO 2512/2514 2SM BR
     FM251500 18012G20KT P6SM SCT030 BKN250=

USA.gov is the U.S. government's official web portal to all federal, state and local government web resources and services.